createdAt,value
2018-12-21T00:00:32.508Z,66.33
2018-12-21T00:03:00.710Z,66.53
2018-12-21T00:05:28.882Z,64.87
2018-12-21T00:07:58.666Z,71.10
2018-12-21T00:10:27.197Z,65.57
2018-12-21T00:12:56.406Z,63.47
2018-12-21T00:15:24.584Z,67.60
2018-12-21T00:17:52.783Z,66.70
2018-12-21T00:20:20.955Z,63.80
2018-12-21T00:22:49.140Z,65.97
2018-12-21T00:25:17.353Z,64.33
2018-12-21T00:27:45.522Z,65.93
2018-12-21T00:30:15.898Z,62.13
2018-12-21T00:32:49.716Z,59.50
2018-12-21T00:35:23.434Z,64.63
2018-12-21T00:37:57.312Z,58.80
2018-12-21T00:40:31.076Z,58.67
2018-12-21T00:43:04.878Z,59.63
2018-12-21T00:45:35.076Z,56.80
2018-12-21T00:48:03.260Z,56.80
2018-12-21T00:50:31.478Z,56.57
2018-12-21T00:52:59.779Z,63.10
2018-12-21T00:55:27.958Z,61.87
2018-12-21T00:57:56.185Z,64.77
2018-12-21T01:00:25.521Z,61.87
2018-12-21T01:02:53.700Z,59.90
2018-12-21T01:05:22.041Z,52.90
2018-12-21T01:07:50.316Z,54.57
2018-12-21T01:10:18.752Z,54.80
2018-12-21T01:12:46.948Z,53.90
2018-12-21T01:15:15.128Z,54.07
2018-12-21T01:17:43.306Z,52.70
2018-12-21T01:20:11.548Z,58.80
2018-12-21T01:22:39.736Z,54.50
2018-12-21T01:25:07.907Z,56.30
2018-12-21T01:27:36.147Z,56.83
2018-12-21T01:30:05.305Z,57.53
2018-12-21T01:32:33.481Z,53.20
2018-12-21T01:35:01.684Z,55.77
2018-12-21T01:37:29.861Z,50.87
2018-12-21T01:39:58.040Z,51.50
2018-12-21T01:42:26.249Z,51.50
2018-12-21T01:44:54.420Z,52.47
2018-12-21T01:47:22.672Z,54.50
2018-12-21T01:49:50.870Z,55.00
2018-12-21T01:52:19.038Z,56.17
2018-12-21T01:54:47.217Z,52.07
2018-12-21T01:57:15.403Z,54.90
2018-12-21T01:59:43.584Z,54.17
2018-12-21T02:02:11.753Z,52.20
2018-12-21T02:04:39.944Z,49.60
2018-12-21T02:07:08.113Z,51.03
2018-12-21T02:09:36.279Z,51.17
2018-12-21T02:12:04.545Z,52.17
2018-12-21T02:14:32.802Z,50.90
2018-12-21T02:17:00.972Z,45.93
2018-12-21T02:19:29.183Z,46.97
2018-12-21T02:21:57.357Z,49.07
2018-12-21T02:24:25.534Z,47.67
2018-12-21T02:26:53.720Z,44.50
2018-12-21T02:29:21.900Z,46.23
2018-12-21T02:31:50.280Z,40.83
2018-12-21T02:34:18.480Z,38.80
2018-12-21T02:36:46.656Z,40.60
2018-12-21T02:39:14.920Z,45.17
2018-12-21T02:41:43.241Z,38.80
2018-12-21T02:44:11.441Z,42.60
2018-12-21T02:46:39.610Z,40.10
2018-12-21T02:49:07.816Z,39.00
2018-12-21T02:51:36.011Z,38.67
2018-12-21T02:54:04.202Z,32.77
2018-12-21T02:56:32.420Z,33.43
2018-12-21T02:59:00.607Z,27.93
2018-12-21T03:01:28.885Z,27.13
2018-12-21T03:03:57.141Z,25.60
2018-12-21T03:06:25.514Z,23.27
2018-12-21T03:08:53.706Z,25.23
2018-12-21T03:11:22.618Z,23.40
2018-12-21T03:13:50.799Z,21.37
2018-12-21T03:16:19.001Z,23.60
2018-12-21T03:18:48.974Z,23.00
2018-12-21T03:21:17.404Z,23.27
2018-12-21T03:23:45.573Z,26.47
2018-12-21T03:26:13.769Z,39.33
2018-12-21T03:28:41.947Z,41.73
2018-12-21T03:31:10.326Z,46.87
2018-12-21T03:33:38.544Z,46.00
2018-12-21T03:36:06.752Z,50.30
2018-12-21T03:38:34.946Z,49.23
2018-12-21T03:41:03.331Z,55.20
2018-12-21T03:43:31.816Z,54.47
2018-12-21T03:46:00.011Z,53.53
2018-12-21T03:48:28.215Z,55.03
2018-12-21T03:50:56.509Z,55.33
2018-12-21T03:53:24.686Z,55.17
2018-12-21T03:55:52.921Z,53.27
2018-12-21T03:58:21.130Z,54.23
2018-12-21T04:00:49.314Z,53.30
2018-12-21T04:03:17.518Z,56.60
2018-12-21T04:05:45.704Z,55.70
2018-12-21T04:08:13.883Z,56.30
2018-12-21T04:10:42.175Z,56.07
2018-12-21T04:13:10.356Z,56.83
2018-12-21T04:15:38.688Z,55.07
2018-12-21T04:18:06.893Z,57.63
2018-12-21T04:20:35.086Z,50.93
2018-12-21T04:23:03.288Z,52.60
2018-12-21T04:25:31.520Z,53.23
2018-12-21T04:27:59.757Z,51.90
2018-12-21T04:30:27.939Z,48.60
2018-12-21T04:32:56.143Z,51.77
2018-12-21T04:35:24.325Z,51.70
2018-12-21T04:37:52.552Z,51.97
2018-12-21T04:40:20.769Z,49.63
2018-12-21T04:42:48.939Z,51.40
2018-12-21T04:45:17.246Z,50.20
2018-12-21T04:47:45.464Z,50.50
2018-12-21T04:50:13.647Z,53.63
2018-12-21T04:52:43.446Z,49.30
2018-12-21T04:55:12.114Z,50.93
2018-12-21T04:57:40.295Z,51.00
2018-12-21T05:00:08.476Z,52.30
2018-12-21T05:02:36.792Z,50.50
2018-12-21T05:05:05.106Z,51.43
2018-12-21T05:07:33.299Z,49.77
2018-12-21T05:10:01.549Z,45.10
2018-12-21T05:12:29.883Z,51.03
2018-12-21T05:14:58.227Z,49.23
2018-12-21T05:17:26.440Z,49.33
2018-12-21T05:19:54.722Z,49.40
2018-12-21T05:22:22.910Z,49.77
2018-12-21T05:24:51.127Z,49.67
2018-12-21T05:27:19.315Z,43.77
2018-12-21T05:29:47.489Z,45.77
2018-12-21T05:32:15.681Z,44.83
2018-12-21T05:34:43.858Z,44.90
2018-12-21T05:37:12.035Z,46.87
2018-12-21T05:39:40.257Z,44.17
2018-12-21T05:42:08.444Z,44.73
2018-12-21T05:44:36.661Z,43.40
2018-12-21T05:47:05.028Z,42.77
2018-12-21T05:49:33.212Z,48.03
2018-12-21T05:52:01.394Z,42.67
2018-12-21T05:54:29.602Z,46.10
2018-12-21T05:56:57.791Z,43.53
2018-12-21T05:59:25.968Z,47.40
2018-12-21T06:01:54.159Z,45.20
2018-12-21T06:04:22.411Z,46.20
2018-12-21T06:06:50.596Z,48.10
2018-12-21T06:09:18.789Z,43.17
2018-12-21T06:11:46.980Z,45.00
2018-12-21T06:14:15.160Z,46.00
2018-12-21T06:16:43.364Z,46.30
2018-12-21T06:19:12.374Z,47.53
2018-12-21T06:21:40.805Z,46.93
2018-12-21T06:24:09.005Z,45.73
2018-12-21T06:26:37.252Z,47.10
2018-12-21T06:29:05.535Z,47.23
2018-12-21T06:31:33.793Z,44.97
2018-12-21T06:34:01.986Z,45.57
2018-12-21T06:36:30.173Z,45.23
2018-12-21T06:38:58.503Z,42.60
2018-12-21T06:41:26.672Z,44.57
2018-12-21T06:43:54.848Z,44.67
2018-12-21T06:46:23.057Z,44.07
2018-12-21T06:48:51.230Z,45.37
2018-12-21T06:51:19.412Z,45.87
2018-12-21T06:53:47.677Z,47.50
2018-12-21T06:56:15.935Z,44.87
2018-12-21T06:58:44.118Z,48.07
2018-12-21T07:01:12.317Z,45.53
2018-12-21T07:03:40.509Z,44.63
2018-12-21T07:06:08.808Z,43.77
2018-12-21T07:08:37.016Z,46.23
2018-12-21T07:11:05.194Z,41.30
2018-12-21T07:13:33.368Z,45.37
2018-12-21T07:16:01.687Z,44.00
2018-12-21T07:18:29.876Z,44.33
2018-12-21T07:20:58.061Z,43.00
2018-12-21T07:23:27.273Z,41.20
2018-12-21T07:25:56.484Z,45.70
2018-12-21T07:28:24.657Z,44.40
2018-12-21T07:30:52.870Z,45.30
2018-12-21T07:33:21.056Z,43.37
2018-12-21T07:35:49.220Z,41.77
2018-12-21T07:38:17.436Z,44.90
2018-12-21T07:40:45.609Z,41.70
2018-12-21T07:43:13.780Z,45.60
2018-12-21T07:45:41.977Z,45.37
2018-12-21T07:48:10.153Z,45.87
2018-12-21T07:50:38.329Z,46.33
2018-12-21T07:53:06.562Z,47.07
2018-12-21T07:55:34.736Z,48.50
2018-12-21T07:58:02.908Z,47.03
2018-12-21T08:00:31.191Z,46.60
2018-12-21T08:02:59.392Z,45.07
2018-12-21T08:05:27.568Z,46.50
2018-12-21T08:07:55.763Z,48.10
2018-12-21T08:10:23.964Z,45.50
2018-12-21T08:12:52.152Z,45.00
2018-12-21T08:15:20.342Z,44.17
2018-12-21T08:17:48.513Z,48.07
2018-12-21T08:20:16.683Z,45.30
2018-12-21T08:22:44.884Z,46.30
2018-12-21T08:25:13.074Z,45.17
2018-12-21T08:27:41.245Z,45.50
2018-12-21T08:30:09.979Z,45.77
2018-12-21T08:32:38.151Z,43.27
2018-12-21T08:35:06.326Z,45.10
2018-12-21T08:37:34.529Z,47.10
2018-12-21T08:40:02.717Z,40.60
2018-12-21T08:42:30.909Z,41.87
2018-12-21T08:44:59.112Z,41.77
2018-12-21T08:47:27.284Z,40.90
2018-12-21T08:49:55.456Z,41.20
2018-12-21T08:52:23.647Z,41.20
2018-12-21T08:54:51.817Z,41.30
2018-12-21T08:57:20.169Z,47.20
2018-12-21T08:59:48.358Z,42.73
2018-12-21T09:02:16.549Z,41.73
2018-12-21T09:04:44.718Z,43.97
2018-12-21T09:07:12.927Z,42.90
2018-12-21T09:09:41.533Z,44.70
2018-12-21T09:12:09.764Z,44.20
2018-12-21T09:14:38.031Z,39.67
2018-12-21T09:17:06.274Z,40.00
2018-12-21T09:19:34.449Z,41.87
2018-12-21T09:22:02.647Z,43.50
2018-12-21T09:24:30.814Z,43.03
2018-12-21T09:26:58.996Z,41.07
2018-12-21T09:29:27.187Z,40.47
2018-12-21T09:31:55.362Z,37.80
2018-12-21T09:34:23.529Z,38.90
2018-12-21T09:36:51.780Z,39.20
2018-12-21T09:39:19.960Z,41.10
2018-12-21T09:41:48.140Z,38.50
2018-12-21T09:44:16.354Z,42.97
2018-12-21T09:46:44.532Z,37.60
2018-12-21T09:49:12.708Z,38.50
2018-12-21T09:51:40.923Z,36.67
2018-12-21T09:54:10.079Z,40.87
2018-12-21T09:56:38.726Z,40.80
2018-12-21T09:59:08.025Z,38.50
2018-12-21T10:01:36.471Z,38.67
2018-12-21T10:04:04.652Z,37.63
2018-12-21T10:06:32.850Z,39.27
2018-12-21T10:09:01.017Z,40.17
2018-12-21T10:11:29.187Z,39.13
2018-12-21T10:13:57.404Z,40.50
2018-12-21T10:16:25.660Z,38.07
2018-12-21T10:18:53.842Z,38.53
2018-12-21T10:21:22.077Z,39.93
2018-12-21T10:23:50.267Z,36.93
2018-12-21T10:26:18.440Z,41.57
2018-12-21T10:31:21.080Z,40.50
2018-12-21T10:33:49.304Z,41.50
2018-12-21T10:36:17.472Z,41.30
2018-12-21T10:38:45.661Z,40.87
2018-12-21T10:41:13.854Z,42.97
2018-12-21T10:43:42.075Z,40.40
2018-12-21T10:46:10.321Z,45.40
2018-12-21T10:48:38.513Z,42.83
2018-12-21T10:51:06.688Z,37.97
2018-12-21T10:53:34.856Z,40.97
2018-12-21T10:56:03.046Z,37.67
2018-12-21T10:58:31.331Z,44.50
2018-12-21T11:00:59.538Z,39.93
2018-12-21T11:03:27.837Z,40.60
2018-12-21T11:05:56.025Z,41.70
2018-12-21T11:08:24.432Z,39.67
2018-12-21T11:10:52.638Z,39.03
2018-12-21T11:13:20.811Z,40.83
2018-12-21T11:15:48.988Z,39.27
2018-12-21T11:18:17.187Z,38.43
2018-12-21T11:20:45.364Z,35.83
2018-12-21T11:23:13.538Z,38.70
2018-12-21T11:25:41.732Z,38.00
2018-12-21T11:28:09.908Z,37.80
2018-12-21T11:30:38.089Z,36.03
2018-12-21T11:33:06.374Z,39.40
2018-12-21T11:35:34.574Z,36.40
2018-12-21T11:38:02.743Z,36.37
2018-12-21T11:40:31.052Z,37.37
2018-12-21T11:42:59.226Z,37.50
2018-12-21T11:45:27.394Z,38.23
2018-12-21T11:47:55.593Z,37.00
2018-12-21T11:50:23.789Z,37.40
2018-12-21T11:52:51.964Z,38.67
2018-12-21T11:55:20.168Z,40.07
2018-12-21T11:57:48.358Z,37.70
2018-12-21T12:00:16.625Z,39.10
2018-12-21T12:02:44.934Z,40.40
2018-12-21T12:05:13.107Z,39.40
2018-12-21T12:07:41.378Z,35.87
2018-12-21T12:10:09.573Z,39.53
2018-12-21T12:12:39.331Z,38.13
2018-12-21T12:15:07.729Z,38.80
2018-12-21T12:17:35.931Z,39.10
2018-12-21T12:20:05.904Z,39.33
2018-12-21T12:22:34.094Z,36.93
2018-12-21T12:25:02.286Z,40.60
2018-12-21T12:27:30.462Z,40.40
2018-12-21T12:29:58.635Z,41.90
2018-12-21T12:32:26.836Z,41.83
2018-12-21T12:34:54.996Z,40.10
2018-12-21T12:37:23.172Z,41.50
2018-12-21T12:39:51.364Z,45.33
2018-12-21T12:42:19.642Z,40.53
2018-12-21T12:44:47.825Z,38.23
2018-12-21T12:47:16.426Z,41.03
2018-12-21T12:49:44.628Z,41.90
2018-12-21T12:52:12.802Z,41.03
2018-12-21T12:54:41.108Z,42.53
2018-12-21T12:57:09.292Z,41.50
2018-12-21T12:59:37.465Z,42.03
2018-12-21T13:04:50.294Z,40.13
2018-12-21T13:07:18.477Z,42.57
2018-12-21T13:09:46.644Z,42.03
2018-12-21T13:12:14.837Z,41.53
2018-12-21T13:14:43.085Z,41.97
2018-12-21T13:17:11.347Z,42.27
2018-12-21T13:19:39.527Z,39.97
2018-12-21T13:22:07.715Z,39.50
2018-12-21T13:24:35.887Z,37.47
2018-12-21T13:27:04.058Z,38.17
2018-12-21T13:29:32.240Z,40.70
2018-12-21T13:32:00.415Z,36.27
2018-12-21T13:34:28.593Z,37.67
2018-12-21T13:36:56.805Z,35.10
2018-12-21T13:39:24.979Z,35.97
2018-12-21T13:41:53.159Z,35.00
2018-12-21T13:44:21.362Z,32.53
2018-12-21T13:46:49.565Z,34.07
2018-12-21T13:49:17.726Z,34.80
2018-12-21T13:51:45.932Z,31.30
2018-12-21T13:54:14.205Z,33.40
2018-12-21T13:56:43.142Z,30.77
2018-12-21T13:59:11.461Z,32.07
2018-12-21T14:01:39.648Z,29.40
2018-12-21T14:04:07.829Z,27.50
2018-12-21T14:06:36.024Z,27.70
2018-12-21T14:09:06.299Z,27.43
2018-12-21T14:11:34.575Z,28.90
2018-12-21T14:14:02.777Z,26.60
2018-12-21T14:16:30.973Z,26.20
2018-12-21T14:18:59.152Z,29.13
2018-12-21T14:21:27.347Z,29.40
2018-12-21T14:23:55.527Z,28.20
2018-12-21T14:26:23.709Z,27.97
2018-12-21T14:28:51.900Z,26.93
2018-12-21T14:31:20.132Z,29.23
2018-12-21T14:33:48.300Z,27.40
2018-12-21T14:36:16.592Z,27.60
2018-12-21T14:38:44.883Z,29.03
2018-12-21T14:41:13.057Z,29.33
2018-12-21T14:43:41.256Z,26.00
2018-12-21T14:46:09.916Z,30.03
2018-12-21T14:48:38.084Z,29.90
2018-12-21T14:51:06.282Z,29.63
2018-12-21T14:53:34.565Z,30.70
2018-12-21T14:56:02.842Z,28.60
2018-12-21T14:58:31.032Z,28.77
2018-12-21T15:00:59.201Z,28.07
2018-12-21T15:03:27.385Z,29.70
2018-12-21T15:05:55.601Z,29.87
2018-12-21T15:08:23.776Z,29.60
2018-12-21T15:10:51.968Z,29.17
2018-12-21T15:13:20.163Z,29.50
2018-12-21T15:15:48.339Z,31.70
2018-12-21T15:18:16.522Z,30.57
2018-12-21T15:20:44.731Z,28.30
2018-12-21T15:23:13.116Z,30.90
2018-12-21T15:25:46.032Z,31.67
2018-12-21T15:28:11.711Z,31.10
2018-12-21T15:30:39.906Z,31.17
2018-12-21T15:33:08.080Z,30.57
2018-12-21T15:35:36.317Z,28.10
2018-12-21T15:38:04.495Z,31.77
2018-12-21T15:40:32.660Z,33.60
2018-12-21T15:43:00.877Z,34.63
2018-12-21T15:45:29.052Z,33.00
2018-12-21T15:47:57.241Z,32.70
2018-12-21T15:50:25.435Z,32.73
2018-12-21T15:52:53.615Z,32.53
2018-12-21T15:55:21.811Z,34.57
2018-12-21T15:57:50.012Z,33.43
2018-12-21T16:00:18.185Z,34.57
2018-12-21T16:02:46.617Z,31.53
2018-12-21T16:05:14.804Z,34.27
2018-12-21T16:07:42.982Z,32.13
2018-12-21T16:10:11.155Z,33.77
2018-12-21T16:12:39.354Z,34.80
2018-12-21T16:15:07.527Z,33.63
2018-12-21T16:17:35.701Z,30.87
2018-12-21T16:20:08.488Z,35.50
2018-12-21T16:22:42.304Z,31.10
2018-12-21T16:25:06.871Z,32.33
2018-12-21T16:27:35.073Z,32.20
2018-12-21T16:30:03.716Z,33.27
2018-12-21T16:32:31.948Z,32.30
2018-12-21T16:35:00.180Z,34.43
2018-12-21T16:37:28.362Z,34.03
2018-12-21T16:39:56.549Z,33.30
2018-12-21T16:42:25.222Z,34.87
2018-12-21T16:44:53.466Z,31.93
2018-12-21T16:47:21.633Z,35.77
2018-12-21T16:49:49.827Z,38.90
2018-12-21T16:52:18.021Z,36.63
2018-12-21T16:54:46.316Z,36.03
2018-12-21T16:57:14.519Z,34.87
2018-12-21T16:59:42.721Z,36.40
2018-12-21T17:02:10.992Z,34.90
2018-12-21T17:04:39.181Z,35.50
2018-12-21T17:07:07.581Z,39.43
2018-12-21T17:09:35.772Z,36.97
2018-12-21T17:12:03.968Z,35.43
2018-12-21T17:14:32.246Z,36.57
2018-12-21T17:17:00.514Z,34.17
2018-12-21T17:19:28.728Z,34.73
2018-12-21T17:21:56.907Z,33.40
2018-12-21T17:24:25.076Z,36.90
2018-12-21T17:26:53.324Z,35.57
2018-12-21T17:29:21.498Z,33.57
2018-12-21T17:31:49.677Z,33.47
2018-12-21T17:34:17.981Z,34.17
2018-12-21T17:36:46.151Z,30.20
2018-12-21T17:39:14.344Z,30.30
2018-12-21T17:41:42.571Z,30.73
2018-12-21T17:44:10.761Z,29.43
2018-12-21T17:46:38.934Z,29.03
2018-12-21T17:49:13.012Z,29.70
2018-12-21T17:51:41.191Z,25.83
2018-12-21T17:54:09.402Z,26.17
2018-12-21T17:56:37.605Z,26.80
2018-12-21T17:59:05.798Z,27.50
2018-12-21T18:01:34.223Z,26.87
2018-12-21T18:04:03.455Z,29.30
2018-12-21T18:06:31.631Z,29.40
2018-12-21T18:08:59.829Z,28.83
2018-12-21T18:11:28.029Z,28.97
2018-12-21T18:13:56.197Z,28.90
2018-12-21T18:16:24.389Z,26.10
2018-12-21T18:18:52.590Z,23.90
2018-12-21T18:21:20.759Z,21.93
2018-12-21T18:23:49.039Z,23.30
2018-12-21T18:26:17.243Z,22.07
2018-12-21T18:28:45.421Z,22.50
2018-12-21T18:31:15.178Z,25.20
2018-12-21T18:33:44.256Z,25.23
2018-12-21T18:36:12.437Z,30.87
2018-12-21T18:38:40.614Z,31.10
2018-12-21T18:41:08.805Z,31.10
2018-12-21T18:43:36.978Z,32.90
2018-12-21T18:46:05.149Z,36.70
2018-12-21T18:48:33.350Z,33.30
2018-12-21T18:51:01.627Z,31.17
2018-12-21T18:53:29.904Z,28.03
2018-12-21T18:55:58.145Z,36.80
2018-12-21T18:58:26.342Z,37.47
2018-12-21T19:00:54.735Z,40.47
2018-12-21T19:03:22.936Z,41.47
2018-12-21T19:05:51.286Z,43.73
2018-12-21T19:08:19.464Z,41.93
2018-12-21T19:10:47.738Z,42.27
2018-12-21T19:13:15.916Z,43.93
2018-12-21T19:15:44.110Z,42.40
2018-12-21T19:18:12.302Z,43.00
2018-12-21T19:20:40.526Z,40.70
2018-12-21T19:23:08.707Z,46.70
2018-12-21T19:25:36.905Z,44.33
2018-12-21T19:28:05.068Z,40.77
2018-12-21T19:30:33.329Z,50.07
2018-12-21T19:33:01.610Z,50.20
2018-12-21T19:35:30.140Z,52.57
2018-12-21T19:37:58.363Z,44.37
2018-12-21T19:40:26.574Z,42.97
2018-12-21T19:42:54.749Z,43.10
2018-12-21T19:45:22.969Z,42.97
2018-12-21T19:47:51.180Z,43.13
2018-12-21T19:50:19.369Z,42.83
2018-12-21T19:52:47.547Z,43.17
2018-12-21T19:55:22.436Z,45.50
2018-12-21T19:57:50.619Z,43.60
2018-12-21T20:00:18.804Z,44.67
2018-12-21T20:02:47.003Z,41.57
2018-12-21T20:05:15.175Z,39.50
2018-12-21T20:07:43.375Z,42.47
2018-12-21T20:10:12.247Z,42.87
2018-12-21T20:12:40.417Z,42.93
2018-12-21T20:15:08.863Z,37.37
2018-12-21T20:17:37.070Z,39.33
2018-12-21T20:20:08.534Z,37.73
2018-12-21T20:22:36.744Z,38.17
2018-12-21T20:25:07.156Z,35.93
2018-12-21T20:27:35.329Z,34.43
2018-12-21T20:30:06.197Z,34.80
2018-12-21T20:32:34.383Z,32.50
2018-12-21T20:35:02.599Z,33.83
2018-12-21T20:37:30.813Z,32.90
2018-12-21T20:39:59.227Z,28.70
